Time;durP1;ratioP1;P1;durP2;ratioP2;P2;SDS_P1;SDS_P2;PMS_P1;PMS_P2;Temp;Humidity;BMP_temperature;BMP_pressure;BME280_temperature;BME280_humidity;BME280_pressure;Samples;Min_cycle;Max_cycle;Signal;HPM_P1;HPM_P2
2021/10/24 00:01:57;;;;;;;2.17;1.73;;;;;;;11.83;100.00;97667.66;4967706;28;20525;-61
2021/10/24 00:04:24;;;;;;;4.35;2.05;;;;;;;11.68;100.00;97699.06;4965605;28;20094;-60
2021/10/24 00:06:51;;;;;;;3.05;2.10;;;;;;;11.54;100.00;97676.50;4967390;28;20059;-62
2021/10/24 00:09:17;;;;;;;3.53;2.30;;;;;;;11.50;100.00;97676.41;4965949;28;20069;-60
2021/10/24 00:11:44;;;;;;;4.00;2.47;;;;;;;11.38;100.00;97661.84;4967313;28;20046;-60
2021/10/24 00:14:11;;;;;;;3.50;2.10;;;;;;;10.73;100.00;97586.59;4967063;28;20182;-60
2021/10/24 00:16:38;;;;;;;3.88;2.17;;;;;;;10.85;100.00;97620.91;4967174;28;20395;-60
2021/10/24 00:19:05;;;;;;;3.03;2.10;;;;;;;11.32;100.00;97674.34;4965569;28;20584;-61
2021/10/24 00:21:31;;;;;;;2.72;1.75;;;;;;;10.99;100.00;97622.06;4967543;28;20084;-60
2021/10/24 00:23:58;;;;;;;3.00;1.85;;;;;;;11.32;100.00;97677.13;4965469;28;20057;-61
2021/10/24 00:26:25;;;;;;;5.65;3.15;;;;;;;11.23;100.00;97682.06;4967209;28;20051;-60
2021/10/24 00:28:55;;;;;;;10.13;5.75;;;;;;;10.70;100.00;97603.94;4966609;28;20423;-61
2021/10/24 00:31:22;;;;;;;4.47;2.58;;;;;;;10.98;100.00;97677.88;4967017;28;20087;-62
2021/10/24 00:33:49;;;;;;;8.55;3.78;;;;;;;10.98;100.00;97672.31;4966757;28;20498;-60
2021/10/24 00:36:21;;;;;;;5.63;2.40;;;;;;;10.94;100.00;97671.44;4966969;28;20053;-60
2021/10/24 00:38:48;;;;;;;4.78;1.70;;;;;;;10.96;100.00;97667.16;4965629;28;20146;-61
2021/10/24 00:41:16;;;;;;;4.65;2.50;;;;;;;10.78;100.00;97676.16;4966758;28;20057;-60
2021/10/24 00:43:43;;;;;;;10.30;4.30;;;;;;;10.82;100.00;97665.97;4966396;28;20067;-62
2021/10/24 00:46:10;;;;;;;9.60;4.05;;;;;;;10.31;100.00;97601.31;4966620;28;20055;-61
2021/10/24 00:48:55;;;;;;;4.15;2.25;;;;;;;10.66;100.00;97658.47;4965253;28;20057;-62
2021/10/24 00:51:22;;;;;;;9.52;4.70;;;;;;;10.18;100.00;97614.41;4966822;28;20065;-60
2021/10/24 00:53:48;;;;;;;2.35;1.42;;;;;;;10.54;100.00;97677.13;4966674;28;20061;-60
2021/10/24 00:56:15;;;;;;;1.75;1.30;;;;;;;10.22;100.00;97659.63;4967064;28;20058;-60
2021/10/24 00:58:42;;;;;;;2.47;1.60;;;;;;;10.36;100.00;97681.34;4966419;28;20130;-59
2021/10/24 01:01:09;;;;;;;4.47;2.78;;;;;;;10.45;100.00;97674.50;4966658;28;20051;-60
2021/10/24 01:03:37;;;;;;;7.63;2.80;;;;;;;8.37;100.00;97372.91;4966401;28;20047;-60
2021/10/24 01:06:04;;;;;;;3.15;2.10;;;;;;;10.18;100.00;97669.78;4966394;28;20050;-60
2021/10/24 01:08:35;;;;;;;10.77;3.97;;;;;;;10.31;100.00;97665.81;4966298;28;20058;-60
2021/10/24 01:11:03;;;;;;;3.20;1.70;;;;;;;10.50;100.00;97693.63;4966621;28;20054;-60
2021/10/24 01:13:34;;;;;;;2.05;1.70;;;;;;;10.07;100.00;97606.97;4966141;28;20586;-60
2021/10/24 01:16:10;;;;;;;2.53;1.35;;;;;;;10.58;100.00;97691.84;4964400;28;20051;-60
2021/10/24 01:18:37;;;;;;;4.03;1.98;;;;;;;10.69;100.00;97688.22;4965925;28;20054;-61
2021/10/24 01:21:04;;;;;;;3.40;1.48;;;;;;;9.83;100.00;97573.84;4980225;28;20141;-60
2021/10/24 01:23:32;;;;;;;4.28;2.10;;;;;;;10.54;100.00;97661.28;4964305;28;20268;-60
2021/10/24 01:25:59;;;;;;;2.30;1.73;;;;;;;10.42;100.00;97636.44;4966074;28;20153;-61
2021/10/24 01:28:26;;;;;;;5.60;3.38;;;;;;;10.38;100.00;97634.72;4966294;28;20053;-60
2021/10/24 01:30:54;;;;;;;2.28;1.38;;;;;;;10.63;100.00;97684.09;4965638;28;20061;-61
2021/10/24 01:33:22;;;;;;;2.38;1.42;;;;;;;10.66;100.00;97691.72;4965919;28;20055;-60
2021/10/24 01:35:59;;;;;;;2.40;1.70;;;;;;;10.50;100.00;97696.41;4965548;28;20061;-60
2021/10/24 01:38:26;;;;;;;3.53;1.85;;;;;;;10.60;100.00;97687.59;4965986;28;20063;-60
2021/10/24 01:40:55;;;;;;;2.65;1.67;;;;;;;10.64;100.00;97677.41;4965310;28;20058;-61
2021/10/24 01:43:23;;;;;;;3.13;2.08;;;;;;;9.60;100.00;97515.50;4963876;28;20066;-60
2021/10/24 01:45:51;;;;;;;3.45;1.85;;;;;;;10.67;100.00;97682.22;4965434;28;20057;-61
2021/10/24 01:48:18;;;;;;;4.22;2.70;;;;;;;10.20;100.00;97612.09;4964495;28;20062;-62
2021/10/24 01:50:46;;;;;;;1.77;1.27;;;;;;;10.41;100.00;97654.22;4965064;28;20062;-62
2021/10/24 01:53:18;;;;;;;5.45;2.65;;;;;;;10.78;100.00;97678.94;4965698;28;20055;-61
2021/10/24 01:55:45;;;;;;;2.67;1.92;;;;;;;10.47;100.00;97647.25;4965105;28;20508;-61
2021/10/24 01:58:12;;;;;;;1.80;1.63;;;;;;;10.77;100.00;97680.09;4965513;28;20062;-61
2021/10/24 02:00:40;;;;;;;2.65;1.40;;;;;;;10.70;100.00;97664.88;4965369;28;20051;-63
2021/10/24 02:03:07;;;;;;;2.90;1.63;;;;;;;9.93;100.00;97574.13;4965637;28;20066;-61
2021/10/24 02:05:34;;;;;;;2.13;1.45;;;;;;;10.60;100.00;97676.50;4964956;28;20341;-61
2021/10/24 02:08:01;;;;;;;2.15;1.80;;;;;;;10.41;100.00;97645.91;4965258;28;20079;-63
2021/10/24 02:10:27;;;;;;;3.63;1.88;;;;;;;10.34;100.00;97655.97;4964699;28;20059;-61
2021/10/24 02:12:54;;;;;;;1.83;1.55;;;;;;;10.50;100.00;97670.66;4963561;28;20109;-61
2021/10/24 02:15:21;;;;;;;1.55;1.42;;;;;;;9.53;100.00;97576.13;4963219;28;20067;-61
2021/10/24 02:17:48;;;;;;;2.63;1.58;;;;;;;10.47;100.00;97638.94;4965133;28;20059;-61
2021/10/24 02:20:15;;;;;;;1.45;1.25;;;;;;;10.73;100.00;97669.72;4964732;28;20442;-61
2021/10/24 02:22:42;;;;;;;3.58;1.40;;;;;;;10.70;100.00;97670.44;4964972;28;20082;-61
2021/10/24 02:25:10;;;;;;;3.58;1.50;;;;;;;10.74;100.00;97676.06;4963492;28;20062;-61
2021/10/24 02:27:38;;;;;;;2.38;1.50;;;;;;;10.81;100.00;97675.44;4964862;28;20053;-61
2021/10/24 02:30:06;;;;;;;2.30;1.65;;;;;;;10.82;100.00;97677.88;4963250;28;20051;-61
2021/10/24 02:32:33;;;;;;;1.58;1.10;;;;;;;10.58;100.00;97626.19;4964438;28;20059;-61
2021/10/24 02:35:00;;;;;;;2.00;1.63;;;;;;;11.02;100.00;97681.56;4963352;28;20061;-60
2021/10/24 02:37:27;;;;;;;2.72;1.90;;;;;;;10.81;100.00;97676.28;4980305;28;20054;-61
2021/10/24 02:39:54;;;;;;;2.75;2.20;;;;;;;10.88;100.00;97676.44;4964698;28;20065;-60
2021/10/24 02:42:21;;;;;;;1.95;1.50;;;;;;;10.76;100.00;97661.84;4964915;28;20162;-60
2021/10/24 02:44:48;;;;;;;2.28;1.73;;;;;;;10.87;100.00;97685.09;4964760;28;20065;-61
2021/10/24 02:47:17;;;;;;;2.35;1.60;;;;;;;10.92;100.00;97693.16;4963709;28;20065;-60
2021/10/24 02:49:44;;;;;;;1.45;1.20;;;;;;;10.92;100.00;97676.53;4964504;28;20510;-61
2021/10/24 02:52:11;;;;;;;3.75;1.85;;;;;;;10.65;100.00;97640.22;4965001;28;20059;-61
2021/10/24 02:54:38;;;;;;;3.38;1.83;;;;;;;10.80;100.00;97684.91;4964186;28;20134;-61
2021/10/24 02:57:05;;;;;;;6.93;2.65;;;;;;;10.84;100.00;97696.91;4963602;28;20514;-63
2021/10/24 02:59:33;;;;;;;2.53;1.80;;;;;;;10.68;100.00;97650.56;4964679;28;20055;-62
2021/10/24 03:02:00;;;;;;;3.30;1.90;;;;;;;10.99;100.00;97676.69;4964555;28;20076;-61
2021/10/24 03:04:27;;;;;;;3.85;1.95;;;;;;;10.94;100.00;97696.41;4965102;28;20050;-62
2021/10/24 03:06:54;;;;;;;2.88;2.00;;;;;;;10.67;100.00;97612.13;4964019;28;20510;-61
2021/10/24 03:09:21;;;;;;;3.20;2.03;;;;;;;11.16;100.00;97670.81;4964237;28;20062;-60
2021/10/24 03:11:48;;;;;;;4.40;2.20;;;;;;;10.06;100.00;97581.22;4963905;28;20143;-60
2021/10/24 03:14:16;;;;;;;3.25;2.25;;;;;;;11.10;100.00;97688.88;4964992;28;20047;-61
2021/10/24 03:16:43;;;;;;;5.45;1.88;;;;;;;11.15;100.00;97696.91;4962841;28;20055;-62
2021/10/24 03:19:11;;;;;;;3.83;2.40;;;;;;;11.16;100.00;97687.47;4964599;28;20090;-60
2021/10/24 03:21:38;;;;;;;4.40;2.88;;;;;;;11.20;100.00;97671.69;4964260;28;20059;-61
2021/10/24 03:24:05;;;;;;;13.25;7.63;;;;;;;10.92;100.00;97618.31;4964166;28;20057;-60
2021/10/24 03:26:34;;;;;;;8.50;6.72;;;;;;;11.40;100.00;97698.31;4964470;28;20441;-60
2021/10/24 03:29:01;;;;;;;3.28;2.80;;;;;;;11.48;100.00;97700.09;4964314;28;20099;-61
2021/10/24 03:31:28;;;;;;;2.95;2.25;;;;;;;11.08;100.00;97608.03;4964745;28;20462;-61
2021/10/24 03:33:55;;;;;;;2.78;1.73;;;;;;;11.31;99.78;97645.03;4962963;28;20063;-64
2021/10/24 03:36:21;;;;;;;3.55;2.78;;;;;;;11.11;100.00;97679.41;4962669;28;20053;-60
2021/10/24 03:38:48;;;;;;;4.47;2.85;;;;;;;11.47;100.00;97723.47;4964181;28;20464;-62
2021/10/24 03:41:15;;;;;;;3.20;2.03;;;;;;;11.45;100.00;97723.03;4964115;28;20754;-60
2021/10/24 03:43:42;;;;;;;4.43;2.28;;;;;;;11.40;100.00;97695.56;4965761;28;20524;-61
2021/10/24 03:46:09;;;;;;;4.43;2.83;;;;;;;11.53;100.00;97691.50;4967744;28;20054;-60
2021/10/24 03:48:36;;;;;;;5.15;3.38;;;;;;;11.09;100.00;97648.44;4966523;28;20457;-60
2021/10/24 03:51:03;;;;;;;4.38;3.15;;;;;;;10.33;99.84;97558.28;4967480;28;20047;-60
2021/10/24 03:53:29;;;;;;;2.63;2.40;;;;;;;11.51;98.90;97710.50;4967480;28;20054;-61
2021/10/24 03:55:56;;;;;;;6.78;2.78;;;;;;;11.27;99.89;97719.81;4967607;28;20054;-60
2021/10/24 03:58:23;;;;;;;4.60;2.80;;;;;;;11.36;100.00;97716.88;4966305;28;20450;-61
2021/10/24 04:00:50;;;;;;;6.43;2.58;;;;;;;11.27;100.00;97711.50;4965397;28;20086;-60
2021/10/24 04:03:17;;;;;;;3.08;2.60;;;;;;;11.24;100.00;97705.88;4967233;28;20050;-60
2021/10/24 04:05:48;;;;;;;3.30;2.53;;;;;;;10.75;100.00;97616.72;4967591;28;20047;-59
2021/10/24 04:08:16;;;;;;;6.93;2.95;;;;;;;11.17;100.00;97711.25;4967444;28;20065;-60
2021/10/24 04:10:43;;;;;;;5.28;3.67;;;;;;;11.09;100.00;97726.06;4965462;28;20091;-60
2021/10/24 04:13:10;;;;;;;3.33;2.97;;;;;;;10.80;100.00;97705.13;4967314;28;20061;-60
2021/10/24 04:15:37;;;;;;;2.50;2.30;;;;;;;10.95;100.00;97731.25;4967454;28;20516;-60
2021/10/24 04:18:04;;;;;;;1.80;1.70;;;;;;;10.95;100.00;97720.16;4967380;28;20149;-59
2021/10/24 04:20:30;;;;;;;2.72;1.75;;;;;;;10.81;100.00;97719.78;4965666;28;20072;-60
2021/10/24 04:22:57;;;;;;;1.75;1.55;;;;;;;10.76;100.00;97729.19;4967338;28;20062;-59
2021/10/24 04:25:27;;;;;;;3.97;1.65;;;;;;;10.69;99.95;97720.66;4967034;28;20054;-59
2021/10/24 04:27:54;;;;;;;2.08;1.50;;;;;;;10.11;100.00;97686.19;4967132;28;20101;-59
2021/10/24 04:30:21;;;;;;;2.42;1.77;;;;;;;10.07;100.00;97712.94;4966731;28;20538;-60
2021/10/24 04:32:48;;;;;;;5.75;1.90;;;;;;;10.23;100.00;97729.63;4966972;28;20065;-61
2021/10/24 04:35:16;;;;;;;2.50;1.77;;;;;;;10.09;100.00;97732.78;4966825;28;20408;-60
2021/10/24 04:37:43;;;;;;;4.25;2.42;;;;;;;9.58;99.18;97650.56;4966250;28;20058;-60
2021/10/24 04:40:10;;;;;;;5.43;3.03;;;;;;;10.20;97.39;97750.53;4966841;28;20055;-60
2021/10/24 04:42:37;;;;;;;2.00;1.83;;;;;;;10.18;95.02;97739.00;4966641;28;20058;-60
2021/10/24 04:45:05;;;;;;;3.38;1.70;;;;;;;10.16;92.15;97743.28;4967099;28;20055;-62
2021/10/24 04:47:32;;;;;;;6.80;3.08;;;;;;;9.69;95.26;97668.28;4966312;28;20088;-63
2021/10/24 04:49:59;;;;;;;5.40;3.03;;;;;;;10.23;97.39;97760.91;4966252;28;20057;-61
2021/10/24 04:52:26;;;;;;;7.85;4.05;;;;;;;10.30;98.01;97769.44;4966230;28;20433;-61
2021/10/24 04:54:53;;;;;;;11.77;7.40;;;;;;;10.22;97.30;97781.44;4965847;28;20053;-59
2021/10/24 04:57:21;;;;;;;9.25;4.57;;;;;;;10.39;97.16;97791.41;4966103;28;20603;-61
2021/10/24 04:59:47;;;;;;;7.25;4.00;;;;;;;10.55;95.59;97798.66;4964854;28;20053;-61
2021/10/24 05:02:14;;;;;;;7.95;5.70;;;;;;;10.58;96.26;97789.63;4966305;28;20075;-59
2021/10/24 05:04:41;;;;;;;5.43;3.15;;;;;;;10.82;95.18;97804.53;4966107;28;20058;-59
2021/10/24 05:07:08;;;;;;;4.90;2.47;;;;;;;10.72;89.07;97807.84;4965451;28;20518;-61
2021/10/24 05:09:34;;;;;;;8.60;3.00;;;;;;;10.71;88.59;97829.19;4966225;28;20062;-60
2021/10/24 05:12:01;;;;;;;4.72;2.33;;;;;;;10.45;90.74;97835.16;4966244;28;20062;-60
2021/10/24 05:14:28;;;;;;;4.10;2.40;;;;;;;10.31;92.49;97781.28;4964643;28;20061;-60
2021/10/24 05:16:55;;;;;;;3.28;1.85;;;;;;;10.35;94.27;97762.84;4966066;28;20582;-60
2021/10/24 05:19:22;;;;;;;3.42;2.15;;;;;;;10.68;93.02;97821.59;4964726;28;20063;-61
2021/10/24 05:21:48;;;;;;;3.28;2.17;;;;;;;11.00;92.07;97861.28;4965569;28;20057;-62
2021/10/24 05:24:15;;;;;;;4.20;2.85;;;;;;;11.05;90.77;97869.38;4966480;28;20079;-61
2021/10/24 05:26:43;;;;;;;21.65;8.10;;;;;;;11.09;89.19;97881.34;4966289;28;20151;-61
2021/10/24 05:29:10;;;;;;;6.22;3.40;;;;;;;10.93;89.04;97872.16;4966385;28;20502;-61
2021/10/24 05:31:37;;;;;;;4.57;3.58;;;;;;;10.17;87.77;97780.88;4966320;28;20057;-60
2021/10/24 05:34:04;;;;;;;6.07;4.22;;;;;;;10.90;88.42;97878.41;4965774;28;20067;-61
2021/10/24 05:36:31;;;;;;;6.13;4.13;;;;;;;9.93;85.70;97733.81;4966088;28;20502;-61
2021/10/24 05:38:58;;;;;;;11.23;4.53;;;;;;;10.46;84.58;97816.56;4964153;28;20051;-61
2021/10/24 05:41:26;;;;;;;7.60;4.05;;;;;;;10.88;85.56;97897.34;4966117;28;20054;-60
2021/10/24 05:43:57;;;;;;;7.03;3.30;;;;;;;10.72;85.56;97871.56;4965689;28;20061;-61
2021/10/24 05:46:24;;;;;;;6.45;3.15;;;;;;;10.63;87.16;97864.19;4965863;28;20047;-60
2021/10/24 05:48:51;;;;;;;3.20;2.42;;;;;;;10.18;84.48;97794.34;4965109;28;20082;-61
2021/10/24 05:51:18;;;;;;;5.53;3.67;;;;;;;10.81;85.45;97914.59;4965396;28;20596;-61
2021/10/24 05:53:44;;;;;;;4.93;3.67;;;;;;;10.60;84.52;97909.22;4964932;28;20057;-61
2021/10/24 05:56:12;;;;;;;3.60;2.15;;;;;;;10.37;85.79;97869.31;4965061;28;20050;-60
2021/10/24 05:58:38;;;;;;;2.75;1.67;;;;;;;10.65;83.64;97939.44;4963765;28;20058;-61
2021/10/24 06:01:05;;;;;;;3.60;2.30;;;;;;;10.76;87.43;97927.88;4963675;28;20059;-60
2021/10/24 06:03:32;;;;;;;2.67;1.90;;;;;;;10.75;84.48;97927.06;4965356;28;20070;-61
2021/10/24 06:05:59;;;;;;;4.82;3.35;;;;;;;10.62;83.98;97939.34;4964878;28;20194;-61
2021/10/24 06:08:27;;;;;;;2.50;2.30;;;;;;;10.35;82.36;97891.00;4965189;28;20059;-62
2021/10/24 06:10:56;;;;;;;4.05;2.67;;;;;;;11.06;85.61;97943.06;4965165;28;20069;-61
2021/10/24 06:13:23;;;;;;;3.33;2.17;;;;;;;11.09;81.72;97943.16;4964842;28;20063;-61
2021/10/24 06:15:51;;;;;;;2.17;1.90;;;;;;;10.52;84.03;97888.00;4965106;28;20058;-61
2021/10/24 06:18:18;;;;;;;2.50;2.30;;;;;;;10.90;83.33;97956.03;4964452;28;20429;-60
2021/10/24 06:20:45;;;;;;;2.35;2.15;;;;;;;10.93;82.96;97958.09;4964915;28;20066;-61
2021/10/24 06:23:11;;;;;;;5.97;2.05;;;;;;;10.65;83.90;97859.09;4963495;28;20051;-63
2021/10/24 06:25:38;;;;;;;3.97;1.90;;;;;;;11.13;80.21;97943.28;4964929;28;20054;-60
2021/10/24 06:28:05;;;;;;;4.15;2.50;;;;;;;11.27;78.74;97955.56;4964598;28;20054;-61
2021/10/24 06:30:32;;;;;;;2.75;2.40;;;;;;;11.21;77.64;97940.34;4965194;28;20047;-61
2021/10/24 06:32:59;;;;;;;3.75;3.28;;;;;;;11.36;77.34;97964.56;4963697;28;20050;-60
2021/10/24 06:35:26;;;;;;;5.57;2.70;;;;;;;11.67;77.75;97969.41;4964569;28;20050;-61
2021/10/24 06:37:53;;;;;;;3.78;2.90;;;;;;;11.57;75.41;97942.16;4965225;28;20054;-61
2021/10/24 06:40:20;;;;;;;4.60;3.78;;;;;;;11.83;73.53;97978.56;4965023;28;20050;-61
2021/10/24 06:42:47;;;;;;;10.18;4.93;;;;;;;11.88;73.78;97981.09;4965321;28;20095;-61
2021/10/24 06:45:13;;;;;;;4.18;2.67;;;;;;;11.88;70.84;97956.09;4963980;28;20829;-61
2021/10/24 06:47:41;;;;;;;5.07;2.45;;;;;;;12.35;69.80;97979.16;4964832;28;20058;-60
2021/10/24 06:50:10;;;;;;;6.43;2.38;;;;;;;12.32;68.12;97974.31;4964544;28;20078;-61
2021/10/24 06:52:37;;;;;;;4.13;2.70;;;;;;;12.32;69.20;97982.66;4964902;28;20050;-60
2021/10/24 06:55:05;;;;;;;4.70;2.10;;;;;;;11.95;68.90;97936.84;4978280;28;20390;-61
2021/10/24 06:57:33;;;;;;;3.53;2.05;;;;;;;12.09;65.76;97953.91;4962989;28;20057;-63
2021/10/24 07:00:00;;;;;;;4.43;1.90;;;;;;;12.18;67.33;97997.00;4964718;28;20082;-61
2021/10/24 07:02:27;;;;;;;2.10;1.85;;;;;;;12.39;66.38;97990.34;4964433;28;20061;-61
2021/10/24 07:04:54;;;;;;;4.80;3.13;;;;;;;12.45;68.91;98003.63;4962657;28;20154;-61
2021/10/24 07:07:23;;;;;;;8.70;3.92;;;;;;;12.56;67.17;97999.13;4964643;28;20054;-62
2021/10/24 07:09:50;;;;;;;7.60;3.78;;;;;;;12.30;67.37;97936.94;4963918;28;20097;-62
2021/10/24 07:12:17;;;;;;;6.22;3.42;;;;;;;12.94;67.91;98002.03;4964283;28;20057;-61
2021/10/24 07:14:44;;;;;;;8.07;3.78;;;;;;;12.40;68.52;97937.19;4962669;28;20063;-62
2021/10/24 07:17:11;;;;;;;13.85;5.80;;;;;;;12.14;69.91;97911.94;4964022;28;20458;-60
2021/10/24 07:19:38;;;;;;;11.05;5.45;;;;;;;12.87;70.16;98004.66;4967854;28;20057;-62
2021/10/24 07:22:04;;;;;;;9.73;5.40;;;;;;;13.00;70.59;98011.75;4968065;28;20053;-61
2021/10/24 07:24:31;;;;;;;11.80;5.32;;;;;;;12.89;70.14;97955.03;4967926;28;20059;-62
2021/10/24 07:26:58;;;;;;;4.35;3.33;;;;;;;12.68;67.38;97914.81;4966648;28;20058;-61
2021/10/24 07:29:25;;;;;;;10.75;5.05;;;;;;;12.80;68.35;97940.53;4967642;28;20069;-61
2021/10/24 07:31:52;;;;;;;5.60;3.45;;;;;;;13.62;67.25;98003.16;4967951;28;20058;-61
2021/10/24 07:34:20;;;;;;;5.55;3.70;;;;;;;13.74;65.68;98012.56;4967533;28;20058;-63
2021/10/24 07:36:47;;;;;;;4.90;3.35;;;;;;;13.20;66.58;97920.75;4967969;28;20054;-61
2021/10/24 07:39:14;;;;;;;4.53;3.13;;;;;;;14.16;66.14;98024.50;4968046;28;20046;-62
2021/10/24 07:41:41;;;;;;;5.28;3.75;;;;;;;14.23;64.80;98025.44;4968121;28;20050;-61
2021/10/24 07:44:07;;;;;;;5.25;3.47;;;;;;;14.25;64.99;98011.16;4966450;28;20065;-61
2021/10/24 07:46:37;;;;;;;3.05;2.78;;;;;;;13.88;64.98;97952.34;4967681;28;20533;-62
2021/10/24 07:49:05;;;;;;;4.95;2.60;;;;;;;14.09;63.58;97974.22;4966013;28;20138;-61
2021/10/24 07:51:32;;;;;;;6.10;3.47;;;;;;;13.97;59.84;97949.31;4966101;28;20058;-61
2021/10/24 07:54:02;;;;;;;4.03;2.50;;;;;;;14.53;59.57;98042.34;4967584;28;20058;-62
2021/10/24 07:56:29;;;;;;;3.25;2.42;;;;;;;13.81;62.91;98046.09;4967895;28;20506;-62
2021/10/24 07:58:56;;;;;;;6.70;3.13;;;;;;;13.79;63.75;98009.44;4967484;28;20055;-63
2021/10/24 08:01:23;;;;;;;5.18;2.63;;;;;;;13.04;60.68;97945.84;4966726;28;20057;-62
2021/10/24 08:03:51;;;;;;;9.20;3.38;;;;;;;12.71;62.84;97864.84;4965840;28;20062;-61
2021/10/24 08:06:21;;;;;;;5.18;3.15;;;;;;;10.14;58.78;97391.25;4966903;28;20051;-61
2021/10/24 08:08:49;;;;;;;6.43;2.35;;;;;;;14.78;57.79;98051.91;4967512;28;20509;-62
2021/10/24 08:11:16;;;;;;;4.20;2.95;;;;;;;14.63;55.52;97999.88;4966898;28;20066;-62
2021/10/24 08:13:43;;;;;;;5.18;2.17;;;;;;;14.52;53.01;97965.44;4966133;28;20101;-62
2021/10/24 08:16:10;;;;;;;2.35;2.15;;;;;;;14.07;52.03;97898.56;4966950;28;20042;-62
2021/10/24 08:18:37;;;;;;;3.05;2.55;;;;;;;15.47;55.86;98059.03;4967410;28;20058;-61
2021/10/24 08:21:04;;;;;;;3.85;2.50;;;;;;;15.25;53.07;98043.13;4967024;28;20550;-61
2021/10/24 08:23:31;;;;;;;3.10;2.20;;;;;;;15.19;52.99;98064.94;4967350;28;20061;-61
2021/10/24 08:25:58;;;;;;;6.40;2.58;;;;;;;14.94;50.31;98031.09;4966540;28;20513;-62
2021/10/24 08:28:25;;;;;;;5.32;2.60;;;;;;;12.13;52.93;97688.16;4966611;28;20097;-63
2021/10/24 08:30:52;;;;;;;3.92;2.40;;;;;;;13.20;53.09;98035.66;4965250;28;20058;-61
2021/10/24 08:33:19;;;;;;;3.90;2.25;;;;;;;13.64;53.63;98019.50;4966663;28;20066;-62
2021/10/24 08:35:46;;;;;;;3.05;2.30;;;;;;;14.04;56.00;98064.47;4966479;28;20058;-62
2021/10/24 08:38:13;;;;;;;3.63;2.22;;;;;;;13.95;54.26;98074.25;4965274;28;20054;-62
2021/10/24 08:40:43;;;;;;;3.45;2.00;;;;;;;14.29;53.96;98107.59;4966802;28;20058;-68
2021/10/24 08:43:19;;;;;;;3.40;2.30;;;;;;;14.19;54.38;98023.78;4965403;28;20096;-68
2021/10/24 08:45:47;;;;;;;3.63;2.25;;;;;;;14.65;53.63;98086.78;4966454;28;20059;-71
2021/10/24 08:48:18;;;;;;;5.47;2.10;;;;;;;14.62;54.45;98098.69;4966620;28;20057;-70
2021/10/24 08:50:47;;;;;;;2.92;2.10;;;;;;;15.04;50.93;98102.19;4966350;28;20055;-69
2021/10/24 08:53:18;;;;;;;2.67;2.03;;;;;;;15.41;48.69;98099.63;4965061;28;20062;-70
2021/10/24 08:55:46;;;;;;;3.00;2.33;;;;;;;15.62;48.55;98097.13;4965925;28;20248;-70
2021/10/24 08:58:14;;;;;;;2.53;2.22;;;;;;;15.14;48.59;97984.34;4966004;28;20425;-71
2021/10/24 09:00:45;;;;;;;2.60;2.40;;;;;;;15.91;46.75;98108.34;4980196;28;20059;-71
2021/10/24 09:03:16;;;;;;;4.22;2.05;;;;;;;12.88;47.27;97680.91;4966315;28;20055;-69
2021/10/24 09:05:47;;;;;;;2.83;2.00;;;;;;;14.69;48.56;98026.28;4964352;28;20069;-71
2021/10/24 09:08:19;;;;;;;2.13;1.85;;;;;;;14.94;49.58;98117.59;4965995;28;20557;-70
2021/10/24 09:10:49;;;;;;;2.05;1.95;;;;;;;15.29;48.81;98116.53;4965278;28;20158;-70
2021/10/24 09:13:24;;;;;;;2.58;1.98;;;;;;;15.44;48.67;98115.63;4966140;28;20058;-70
2021/10/24 09:15:56;;;;;;;4.85;2.70;;;;;;;13.70;50.11;97828.69;4965748;28;20055;-71
2021/10/24 09:18:43;;;;;;;3.33;2.92;;;;;;;15.12;50.50;98059.28;4965984;28;20058;-70
2021/10/24 09:21:18;;;;;;;4.05;3.08;;;;;;;15.65;49.26;98130.69;4964765;28;20058;-72
2021/10/24 09:24:04;;;;;;;7.50;3.53;;;;;;;15.04;49.61;98013.72;4966191;28;20054;-69
2021/10/24 09:26:31;;;;;;;7.60;3.33;;;;;;;15.28;47.45;98090.63;4965443;28;20532;-71
2021/10/24 09:29:06;;;;;;;3.85;3.13;;;;;;;15.56;48.26;98126.56;4966101;28;20051;-70
2021/10/24 09:31:41;;;;;;;5.72;3.53;;;;;;;15.52;50.56;98126.53;4965683;28;20469;-69
2021/10/24 09:34:25;;;;;;;7.15;4.22;;;;;;;15.54;50.05;98132.53;4966217;28;20062;-71
2021/10/24 09:37:02;;;;;;;4.53;3.33;;;;;;;15.34;49.56;98128.22;4965820;28;20238;-70
2021/10/24 09:39:37;;;;;;;5.78;3.97;;;;;;;15.12;50.39;98095.56;4965990;28;20057;-71
2021/10/24 09:42:21;;;;;;;5.65;2.85;;;;;;;15.31;52.00;98130.94;4963981;28;20078;-70
2021/10/24 09:45:13;;;;;;;13.75;6.07;;;;;;;15.44;51.19;98138.78;4965412;28;20070;-71
2021/10/24 09:47:41;;;;;;;8.00;3.70;;;;;;;15.45;50.08;98120.03;4965087;28;20146;-69
2021/10/24 09:50:11;;;;;;;11.23;4.97;;;;;;;15.51;51.19;98136.06;4965446;28;20628;-70
2021/10/24 09:52:38;;;;;;;3.80;3.20;;;;;;;15.55;52.01;98125.78;4965051;28;20054;-72
2021/10/24 09:55:14;;;;;;;3.15;2.85;;;;;;;15.23;51.00;98068.63;4965385;28;20050;-72
2021/10/24 09:57:42;;;;;;;7.90;3.03;;;;;;;15.72;52.03;98111.25;4964976;28;20498;-69
2021/10/24 10:00:10;;;;;;;6.43;3.28;;;;;;;15.56;49.66;98053.94;4964959;28;20214;-71
2021/10/24 10:02:38;;;;;;;3.08;2.00;;;;;;;16.01;49.04;98082.50;4963356;28;20090;-70
2021/10/24 10:05:05;;;;;;;3.05;2.60;;;;;;;16.27;47.53;98113.16;4963538;28;20059;-71
2021/10/24 10:07:31;;;;;;;3.05;2.60;;;;;;;16.04;47.83;98081.75;4965405;28;20051;-71
2021/10/24 10:10:00;;;;;;;4.10;2.85;;;;;;;16.37;46.88;98084.53;4965468;28;20581;-71
2021/10/24 10:12:34;;;;;;;3.90;3.60;;;;;;;16.63;46.71;98132.00;4964662;28;20132;-68
2021/10/24 10:15:02;;;;;;;6.72;2.92;;;;;;;16.84;47.79;98130.59;4965312;28;20148;-69
2021/10/24 10:17:30;;;;;;;7.03;4.10;;;;;;;16.97;48.27;98131.94;4963641;28;20079;-68
2021/10/24 10:19:58;;;;;;;8.43;4.95;;;;;;;16.69;47.77;98095.28;4964827;28;20058;-68
2021/10/24 10:22:29;;;;;;;7.20;4.80;;;;;;;16.74;48.51;98137.69;4963884;28;20101;-67
2021/10/24 10:25:07;;;;;;;5.10;3.00;;;;;;;15.75;48.57;98141.22;4964935;28;20486;-68
2021/10/24 10:27:38;;;;;;;4.30;3.30;;;;;;;15.21;50.88;98149.13;4965567;28;20856;-67
2021/10/24 10:30:07;;;;;;;8.50;4.50;;;;;;;15.61;48.93;98152.22;4963295;28;20149;-67
2021/10/24 10:32:46;;;;;;;3.88;2.72;;;;;;;15.43;49.01;98145.53;4963507;28;20058;-67
2021/10/24 10:35:20;;;;;;;3.22;2.92;;;;;;;15.22;50.00;98150.75;4964929;28;20077;-68
2021/10/24 10:38:01;;;;;;;2.83;2.22;;;;;;;15.67;49.97;98150.69;4964711;28;20860;-67
2021/10/24 10:40:34;;;;;;;4.25;2.80;;;;;;;15.32;48.72;98077.53;4964818;28;20524;-68
2021/10/24 10:43:12;;;;;;;3.00;2.38;;;;;;;16.02;48.44;98140.03;4963360;28;20145;-68
2021/10/24 10:45:44;;;;;;;4.60;2.60;;;;;;;15.54;49.03;98085.06;4964694;28;20596;-68
2021/10/24 10:48:33;;;;;;;5.47;2.80;;;;;;;16.19;48.60;98145.03;4963393;28;20133;-68
2021/10/24 10:51:04;;;;;;;3.67;2.67;;;;;;;16.30;47.93;98145.97;4964654;28;20047;-68
2021/10/24 10:53:31;;;;;;;2.55;2.30;;;;;;;16.55;47.94;98147.09;4966054;28;21004;-69
2021/10/24 10:56:05;;;;;;;4.28;2.83;;;;;;;16.58;47.48;98151.91;4968738;28;20097;-68
2021/10/24 10:58:43;;;;;;;6.68;4.30;;;;;;;16.79;47.52;98142.16;4967174;28;20065;-68
2021/10/24 11:01:24;;;;;;;6.78;4.18;;;;;;;16.45;47.22;98103.00;4968749;28;20216;-68
2021/10/24 11:03:56;;;;;;;3.55;2.80;;;;;;;16.63;46.11;98148.78;4968227;28;20055;-67
2021/10/24 11:06:22;;;;;;;6.07;3.22;;;;;;;16.71;42.44;98148.88;4968863;28;20118;-67
2021/10/24 11:08:55;;;;;;;3.97;3.58;;;;;;;16.78;46.09;98137.72;4968150;28;20057;-67
2021/10/24 11:11:40;;;;;;;4.15;3.70;;;;;;;17.23;44.92;98140.19;4967922;28;20054;-67
2021/10/24 11:14:18;;;;;;;4.35;2.75;;;;;;;16.98;41.80;98136.31;4968163;28;20059;-67
2021/10/24 11:16:49;;;;;;;2.97;2.22;;;;;;;16.12;39.51;98139.34;4968524;28;20502;-69
2021/10/24 11:21:55;;;;;;;2.70;2.20;;;;;;;15.54;43.69;98140.91;4968458;28;20516;-68
2021/10/24 11:24:36;;;;;;;3.42;2.92;;;;;;;15.60;43.88;98133.81;4967987;28;20074;-68
2021/10/24 11:27:04;;;;;;;3.83;2.20;;;;;;;15.83;43.81;98119.78;4968264;28;20062;-67
2021/10/24 11:29:35;;;;;;;3.67;2.40;;;;;;;16.35;42.97;98154.03;4967703;28;20067;-68
2021/10/24 11:32:30;;;;;;;2.92;2.65;;;;;;;16.23;43.45;98147.88;4968307;28;20520;-66
2021/10/24 11:34:57;;;;;;;3.63;2.40;;;;;;;16.38;41.70;98111.31;4967902;28;20055;-66
2021/10/24 11:37:48;;;;;;;2.30;2.10;;;;;;;16.36;41.79;98110.88;4967499;28;20057;-68
2021/10/24 11:40:18;;;;;;;3.28;2.75;;;;;;;16.27;42.58;98152.31;4966614;28;20050;-67